sensor_id;sensor_type;location;lat;lon;timestamp;P1;durP1;ratioP1;P2;durP2;ratioP2
36211;SDS011;22247;48.586;13.492;2024-03-06T00:00:28;42.80;;;18.23;;
36211;SDS011;22247;48.586;13.492;2024-03-06T00:02:57;46.20;;;17.13;;
36211;SDS011;22247;48.586;13.492;2024-03-06T00:05:24;38.30;;;17.52;;
36211;SDS011;22247;48.586;13.492;2024-03-06T00:07:48;40.78;;;18.25;;
36211;SDS011;22247;48.586;13.492;2024-03-06T00:10:13;50.90;;;18.40;;
36211;SDS011;22247;48.586;13.492;2024-03-06T00:12:37;37.63;;;17.33;;
36211;SDS011;22247;48.586;13.492;2024-03-06T00:15:07;41.92;;;18.60;;
36211;SDS011;22247;48.586;13.492;2024-03-06T00:17:36;42.72;;;18.38;;
36211;SDS011;22247;48.586;13.492;2024-03-06T00:20:03;42.03;;;18.67;;
36211;SDS011;22247;48.586;13.492;2024-03-06T00:22:33;44.13;;;18.10;;
36211;SDS011;22247;48.586;13.492;2024-03-06T00:24:59;45.85;;;19.13;;
36211;SDS011;22247;48.586;13.492;2024-03-06T00:27:24;41.03;;;17.85;;
36211;SDS011;22247;48.586;13.492;2024-03-06T00:29:51;42.00;;;18.27;;
36211;SDS011;22247;48.586;13.492;2024-03-06T00:32:15;39.25;;;18.85;;
36211;SDS011;22247;48.586;13.492;2024-03-06T00:34:40;41.30;;;17.85;;
36211;SDS011;22247;48.586;13.492;2024-03-06T00:37:07;42.00;;;18.50;;
36211;SDS011;22247;48.586;13.492;2024-03-06T00:39:33;43.85;;;18.40;;
36211;SDS011;22247;48.586;13.492;2024-03-06T00:44:23;41.13;;;17.88;;
36211;SDS011;22247;48.586;13.492;2024-03-06T00:46:48;41.75;;;17.73;;
36211;SDS011;22247;48.586;13.492;2024-03-06T00:49:12;48.20;;;18.15;;
36211;SDS011;22247;48.586;13.492;2024-03-06T00:51:42;43.75;;;18.45;;
36211;SDS011;22247;48.586;13.492;2024-03-06T00:54:06;45.90;;;18.77;;
36211;SDS011;22247;48.586;13.492;2024-03-06T00:56:36;50.70;;;19.55;;
36211;SDS011;22247;48.586;13.492;2024-03-06T00:59:02;49.22;;;19.23;;
36211;SDS011;22247;48.586;13.492;2024-03-06T01:01:31;43.58;;;18.45;;
36211;SDS011;22247;48.586;13.492;2024-03-06T01:03:59;46.45;;;19.02;;
36211;SDS011;22247;48.586;13.492;2024-03-06T01:06:26;50.20;;;19.63;;
36211;SDS011;22247;48.586;13.492;2024-03-06T01:08:53;52.72;;;19.95;;
36211;SDS011;22247;48.586;13.492;2024-03-06T01:11:21;42.65;;;18.08;;
36211;SDS011;22247;48.586;13.492;2024-03-06T01:13:47;40.47;;;17.30;;
36211;SDS011;22247;48.586;13.492;2024-03-06T01:16:16;38.88;;;17.23;;
36211;SDS011;22247;48.586;13.492;2024-03-06T01:18:41;44.45;;;19.08;;
36211;SDS011;22247;48.586;13.492;2024-03-06T01:21:05;37.70;;;16.77;;
36211;SDS011;22247;48.586;13.492;2024-03-06T01:23:30;44.55;;;18.20;;
36211;SDS011;22247;48.586;13.492;2024-03-06T01:25:57;49.50;;;20.10;;
36211;SDS011;22247;48.586;13.492;2024-03-06T01:28:24;49.92;;;18.70;;
36211;SDS011;22247;48.586;13.492;2024-03-06T01:30:53;42.63;;;19.00;;
36211;SDS011;22247;48.586;13.492;2024-03-06T01:33:18;46.60;;;20.42;;
36211;SDS011;22247;48.586;13.492;2024-03-06T01:35:45;48.47;;;20.25;;
36211;SDS011;22247;48.586;13.492;2024-03-06T01:38:12;58.53;;;22.45;;
36211;SDS011;22247;48.586;13.492;2024-03-06T01:40:42;55.35;;;20.20;;
36211;SDS011;22247;48.586;13.492;2024-03-06T01:43:16;49.75;;;19.58;;
36211;SDS011;22247;48.586;13.492;2024-03-06T01:45:45;56.42;;;20.42;;
36211;SDS011;22247;48.586;13.492;2024-03-06T01:48:14;52.97;;;21.73;;
36211;SDS011;22247;48.586;13.492;2024-03-06T01:50:44;52.92;;;22.13;;
36211;SDS011;22247;48.586;13.492;2024-03-06T01:53:09;52.58;;;20.42;;
36211;SDS011;22247;48.586;13.492;2024-03-06T01:55:34;53.60;;;20.83;;
36211;SDS011;22247;48.586;13.492;2024-03-06T01:58:01;48.03;;;20.23;;
36211;SDS011;22247;48.586;13.492;2024-03-06T02:00:27;55.35;;;21.88;;
36211;SDS011;22247;48.586;13.492;2024-03-06T02:02:52;47.30;;;20.08;;
36211;SDS011;22247;48.586;13.492;2024-03-06T02:05:19;48.15;;;19.10;;
36211;SDS011;22247;48.586;13.492;2024-03-06T02:07:44;51.53;;;19.33;;
36211;SDS011;22247;48.586;13.492;2024-03-06T02:10:09;46.33;;;18.88;;
36211;SDS011;22247;48.586;13.492;2024-03-06T02:12:34;50.72;;;20.60;;
36211;SDS011;22247;48.586;13.492;2024-03-06T02:15:00;54.33;;;21.55;;
36211;SDS011;22247;48.586;13.492;2024-03-06T02:17:27;52.38;;;21.02;;
36211;SDS011;22247;48.586;13.492;2024-03-06T02:19:53;56.20;;;20.98;;
36211;SDS011;22247;48.586;13.492;2024-03-06T02:22:22;46.80;;;18.58;;
36211;SDS011;22247;48.586;13.492;2024-03-06T02:24:48;49.17;;;18.77;;
36211;SDS011;22247;48.586;13.492;2024-03-06T02:27:13;48.95;;;20.42;;
36211;SDS011;22247;48.586;13.492;2024-03-06T02:29:40;51.03;;;20.33;;
36211;SDS011;22247;48.586;13.492;2024-03-06T02:32:07;46.45;;;19.98;;
36211;SDS011;22247;48.586;13.492;2024-03-06T02:34:34;53.55;;;21.20;;
36211;SDS011;22247;48.586;13.492;2024-03-06T02:36:59;48.35;;;19.38;;
36211;SDS011;22247;48.586;13.492;2024-03-06T02:39:26;48.38;;;19.05;;
36211;SDS011;22247;48.586;13.492;2024-03-06T02:41:53;49.20;;;19.80;;
36211;SDS011;22247;48.586;13.492;2024-03-06T02:44:17;46.70;;;19.17;;
36211;SDS011;22247;48.586;13.492;2024-03-06T02:46:46;51.50;;;20.88;;
36211;SDS011;22247;48.586;13.492;2024-03-06T02:49:15;59.30;;;22.55;;
36211;SDS011;22247;48.586;13.492;2024-03-06T02:51:44;50.05;;;20.10;;
36211;SDS011;22247;48.586;13.492;2024-03-06T02:54:09;51.67;;;21.33;;
36211;SDS011;22247;48.586;13.492;2024-03-06T02:56:36;50.85;;;19.70;;
36211;SDS011;22247;48.586;13.492;2024-03-06T02:59:00;54.45;;;20.92;;
36211;SDS011;22247;48.586;13.492;2024-03-06T03:01:28;46.45;;;18.13;;
36211;SDS011;22247;48.586;13.492;2024-03-06T03:03:54;38.42;;;17.63;;
36211;SDS011;22247;48.586;13.492;2024-03-06T03:06:18;40.97;;;17.58;;
36211;SDS011;22247;48.586;13.492;2024-03-06T03:08:43;40.75;;;15.93;;
36211;SDS011;22247;48.586;13.492;2024-03-06T03:11:07;39.78;;;16.40;;
36211;SDS011;22247;48.586;13.492;2024-03-06T03:13:32;35.70;;;15.70;;
36211;SDS011;22247;48.586;13.492;2024-03-06T03:15:59;46.75;;;16.05;;
36211;SDS011;22247;48.586;13.492;2024-03-06T03:18:23;40.72;;;17.48;;
36211;SDS011;22247;48.586;13.492;2024-03-06T03:20:51;48.15;;;18.33;;
36211;SDS011;22247;48.586;13.492;2024-03-06T03:23:18;33.65;;;16.08;;
36211;SDS011;22247;48.586;13.492;2024-03-06T03:25:46;45.30;;;17.73;;
36211;SDS011;22247;48.586;13.492;2024-03-06T03:28:18;43.88;;;17.77;;
36211;SDS011;22247;48.586;13.492;2024-03-06T03:30:43;44.10;;;18.15;;
36211;SDS011;22247;48.586;13.492;2024-03-06T03:33:10;45.20;;;17.58;;
36211;SDS011;22247;48.586;13.492;2024-03-06T03:35:34;44.55;;;17.92;;
36211;SDS011;22247;48.586;13.492;2024-03-06T03:38:01;47.05;;;19.52;;
36211;SDS011;22247;48.586;13.492;2024-03-06T03:40:27;53.58;;;19.10;;
36211;SDS011;22247;48.586;13.492;2024-03-06T03:42:52;52.35;;;20.90;;
36211;SDS011;22247;48.586;13.492;2024-03-06T03:45:20;39.20;;;17.77;;
36211;SDS011;22247;48.586;13.492;2024-03-06T03:47:45;39.40;;;17.25;;
36211;SDS011;22247;48.586;13.492;2024-03-06T03:50:10;40.45;;;17.02;;
36211;SDS011;22247;48.586;13.492;2024-03-06T03:52:35;44.97;;;17.80;;
36211;SDS011;22247;48.586;13.492;2024-03-06T03:55:00;42.45;;;17.02;;
36211;SDS011;22247;48.586;13.492;2024-03-06T03:57:27;32.78;;;14.50;;
36211;SDS011;22247;48.586;13.492;2024-03-06T04:02:17;44.45;;;16.45;;
36211;SDS011;22247;48.586;13.492;2024-03-06T04:04:42;38.75;;;16.33;;
36211;SDS011;22247;48.586;13.492;2024-03-06T04:07:07;44.75;;;16.70;;
36211;SDS011;22247;48.586;13.492;2024-03-06T04:09:32;39.90;;;15.45;;
36211;SDS011;22247;48.586;13.492;2024-03-06T04:12:05;37.58;;;14.10;;
36211;SDS011;22247;48.586;13.492;2024-03-06T04:14:30;36.75;;;14.98;;
36211;SDS011;22247;48.586;13.492;2024-03-06T04:16:58;37.28;;;16.27;;
36211;SDS011;22247;48.586;13.492;2024-03-06T04:19:23;41.75;;;16.70;;
36211;SDS011;22247;48.586;13.492;2024-03-06T04:21:50;42.70;;;15.65;;
36211;SDS011;22247;48.586;13.492;2024-03-06T04:24:15;37.58;;;15.18;;
36211;SDS011;22247;48.586;13.492;2024-03-06T04:26:40;41.58;;;16.70;;
36211;SDS011;22247;48.586;13.492;2024-03-06T04:29:07;42.55;;;17.25;;
36211;SDS011;22247;48.586;13.492;2024-03-06T04:31:32;42.30;;;16.90;;
36211;SDS011;22247;48.586;13.492;2024-03-06T04:34:00;44.75;;;16.50;;
36211;SDS011;22247;48.586;13.492;2024-03-06T04:36:25;43.08;;;16.95;;
36211;SDS011;22247;48.586;13.492;2024-03-06T04:38:49;46.97;;;18.17;;
36211;SDS011;22247;48.586;13.492;2024-03-06T04:41:17;58.55;;;20.27;;
36211;SDS011;22247;48.586;13.492;2024-03-06T04:43:42;46.55;;;19.00;;
36211;SDS011;22247;48.586;13.492;2024-03-06T04:48:36;43.85;;;17.92;;
36211;SDS011;22247;48.586;13.492;2024-03-06T04:51:00;50.55;;;19.85;;
36211;SDS011;22247;48.586;13.492;2024-03-06T04:53:27;59.30;;;20.85;;
36211;SDS011;22247;48.586;13.492;2024-03-06T04:55:52;50.20;;;19.38;;
36211;SDS011;22247;48.586;13.492;2024-03-06T04:58:22;51.75;;;20.83;;
36211;SDS011;22247;48.586;13.492;2024-03-06T05:00:46;70.93;;;21.65;;
36211;SDS011;22247;48.586;13.492;2024-03-06T05:03:13;55.80;;;21.30;;
36211;SDS011;22247;48.586;13.492;2024-03-06T05:05:39;60.03;;;21.20;;
36211;SDS011;22247;48.586;13.492;2024-03-06T05:08:08;56.42;;;21.30;;
36211;SDS011;22247;48.586;13.492;2024-03-06T05:10:37;43.17;;;18.38;;
36211;SDS011;22247;48.586;13.492;2024-03-06T05:13:02;44.95;;;18.17;;
36211;SDS011;22247;48.586;13.492;2024-03-06T05:15:28;46.70;;;17.83;;
36211;SDS011;22247;48.586;13.492;2024-03-06T05:17:58;46.80;;;16.65;;
36211;SDS011;22247;48.586;13.492;2024-03-06T05:20:24;41.80;;;16.80;;
36211;SDS011;22247;48.586;13.492;2024-03-06T05:22:49;41.95;;;16.60;;
36211;SDS011;22247;48.586;13.492;2024-03-06T05:25:15;46.38;;;18.20;;
36211;SDS011;22247;48.586;13.492;2024-03-06T05:27:40;42.22;;;16.65;;
36211;SDS011;22247;48.586;13.492;2024-03-06T05:30:07;42.05;;;17.48;;
36211;SDS011;22247;48.586;13.492;2024-03-06T05:32:32;50.47;;;21.00;;
36211;SDS011;22247;48.586;13.492;2024-03-06T05:34:57;58.78;;;22.67;;
36211;SDS011;22247;48.586;13.492;2024-03-06T05:37:26;56.30;;;21.23;;
36211;SDS011;22247;48.586;13.492;2024-03-06T05:39:55;59.20;;;21.60;;
36211;SDS011;22247;48.586;13.492;2024-03-06T05:42:22;57.70;;;21.08;;
36211;SDS011;22247;48.586;13.492;2024-03-06T05:44:49;48.40;;;20.58;;
36211;SDS011;22247;48.586;13.492;2024-03-06T05:47:17;50.28;;;19.77;;
36211;SDS011;22247;48.586;13.492;2024-03-06T05:49:42;45.33;;;19.23;;
36211;SDS011;22247;48.586;13.492;2024-03-06T05:52:11;43.00;;;16.42;;
36211;SDS011;22247;48.586;13.492;2024-03-06T05:54:38;44.75;;;17.83;;
36211;SDS011;22247;48.586;13.492;2024-03-06T05:57:03;42.53;;;17.42;;
36211;SDS011;22247;48.586;13.492;2024-03-06T05:59:28;45.60;;;18.30;;
36211;SDS011;22247;48.586;13.492;2024-03-06T06:01:52;46.85;;;18.77;;
36211;SDS011;22247;48.586;13.492;2024-03-06T06:04:17;45.65;;;17.70;;
36211;SDS011;22247;48.586;13.492;2024-03-06T06:06:46;47.30;;;18.92;;
36211;SDS011;22247;48.586;13.492;2024-03-06T06:09:11;42.88;;;17.20;;
36211;SDS011;22247;48.586;13.492;2024-03-06T06:11:42;46.60;;;18.60;;
36211;SDS011;22247;48.586;13.492;2024-03-06T06:14:11;44.28;;;18.45;;
36211;SDS011;22247;48.586;13.492;2024-03-06T06:16:41;42.60;;;17.85;;
36211;SDS011;22247;48.586;13.492;2024-03-06T06:19:08;48.55;;;19.45;;
36211;SDS011;22247;48.586;13.492;2024-03-06T06:21:35;41.75;;;18.00;;
36211;SDS011;22247;48.586;13.492;2024-03-06T06:24:06;42.80;;;18.83;;
36211;SDS011;22247;48.586;13.492;2024-03-06T06:26:32;46.85;;;19.58;;
36211;SDS011;22247;48.586;13.492;2024-03-06T06:28:56;45.65;;;19.42;;
36211;SDS011;22247;48.586;13.492;2024-03-06T06:33:46;47.22;;;18.63;;
36211;SDS011;22247;48.586;13.492;2024-03-06T06:36:13;48.90;;;19.02;;
36211;SDS011;22247;48.586;13.492;2024-03-06T06:38:40;47.17;;;17.88;;
36211;SDS011;22247;48.586;13.492;2024-03-06T06:41:07;35.70;;;15.98;;
36211;SDS011;22247;48.586;13.492;2024-03-06T06:43:32;41.25;;;17.10;;
36211;SDS011;22247;48.586;13.492;2024-03-06T06:45:56;47.60;;;18.48;;
36211;SDS011;22247;48.586;13.492;2024-03-06T06:48:21;51.97;;;18.70;;
36211;SDS011;22247;48.586;13.492;2024-03-06T06:53:15;50.80;;;18.52;;
36211;SDS011;22247;48.586;13.492;2024-03-06T06:55:40;47.00;;;18.40;;
36211;SDS011;22247;48.586;13.492;2024-03-06T06:58:04;51.25;;;18.65;;
36211;SDS011;22247;48.586;13.492;2024-03-06T07:00:33;45.38;;;18.75;;
36211;SDS011;22247;48.586;13.492;2024-03-06T07:03:01;38.83;;;17.23;;
36211;SDS011;22247;48.586;13.492;2024-03-06T07:05:26;45.90;;;18.52;;
36211;SDS011;22247;48.586;13.492;2024-03-06T07:07:50;47.33;;;18.58;;
36211;SDS011;22247;48.586;13.492;2024-03-06T07:10:17;46.45;;;20.38;;
36211;SDS011;22247;48.586;13.492;2024-03-06T07:12:43;48.38;;;18.92;;
36211;SDS011;22247;48.586;13.492;2024-03-06T07:15:13;51.90;;;20.80;;
36211;SDS011;22247;48.586;13.492;2024-03-06T07:17:39;48.03;;;18.85;;
36211;SDS011;22247;48.586;13.492;2024-03-06T07:20:04;44.15;;;19.25;;
36211;SDS011;22247;48.586;13.492;2024-03-06T07:22:35;50.45;;;18.95;;
36211;SDS011;22247;48.586;13.492;2024-03-06T07:25:00;50.83;;;19.77;;
36211;SDS011;22247;48.586;13.492;2024-03-06T07:27:28;50.53;;;18.90;;
36211;SDS011;22247;48.586;13.492;2024-03-06T07:29:55;43.47;;;17.77;;
36211;SDS011;22247;48.586;13.492;2024-03-06T07:32:20;46.10;;;18.75;;
36211;SDS011;22247;48.586;13.492;2024-03-06T07:34:44;43.47;;;18.17;;
36211;SDS011;22247;48.586;13.492;2024-03-06T07:37:09;47.05;;;17.60;;
36211;SDS011;22247;48.586;13.492;2024-03-06T07:39:35;48.70;;;19.17;;
36211;SDS011;22247;48.586;13.492;2024-03-06T07:42:00;43.13;;;18.48;;
36211;SDS011;22247;48.586;13.492;2024-03-06T07:44:25;39.78;;;17.83;;
36211;SDS011;22247;48.586;13.492;2024-03-06T07:46:49;47.15;;;18.85;;
36211;SDS011;22247;48.586;13.492;2024-03-06T07:49:18;42.05;;;19.05;;
36211;SDS011;22247;48.586;13.492;2024-03-06T07:51:43;39.58;;;17.58;;
36211;SDS011;22247;48.586;13.492;2024-03-06T07:54:13;40.92;;;17.98;;
36211;SDS011;22247;48.586;13.492;2024-03-06T07:56:40;39.88;;;17.92;;
36211;SDS011;22247;48.586;13.492;2024-03-06T07:59:05;42.92;;;17.83;;
36211;SDS011;22247;48.586;13.492;2024-03-06T08:01:32;49.78;;;22.30;;
36211;SDS011;22247;48.586;13.492;2024-03-06T08:03:57;47.08;;;21.67;;
36211;SDS011;22247;48.586;13.492;2024-03-06T08:06:24;38.10;;;17.92;;
36211;SDS011;22247;48.586;13.492;2024-03-06T08:08:50;45.88;;;17.73;;
36211;SDS011;22247;48.586;13.492;2024-03-06T08:11:22;41.63;;;18.10;;
36211;SDS011;22247;48.586;13.492;2024-03-06T08:13:48;34.05;;;16.65;;
36211;SDS011;22247;48.586;13.492;2024-03-06T08:16:13;36.05;;;15.98;;
36211;SDS011;22247;48.586;13.492;2024-03-06T08:18:38;31.42;;;14.57;;
36211;SDS011;22247;48.586;13.492;2024-03-06T08:21:04;37.97;;;15.82;;
36211;SDS011;22247;48.586;13.492;2024-03-06T08:23:30;34.80;;;16.08;;
36211;SDS011;22247;48.586;13.492;2024-03-06T08:25:57;32.10;;;15.30;;
36211;SDS011;22247;48.586;13.492;2024-03-06T08:28:23;29.80;;;14.15;;
36211;SDS011;22247;48.586;13.492;2024-03-06T08:33:16;32.13;;;14.65;;
36211;SDS011;22247;48.586;13.492;2024-03-06T08:35:41;29.38;;;14.13;;
36211;SDS011;22247;48.586;13.492;2024-03-06T08:40:34;35.53;;;14.65;;
36211;SDS011;22247;48.586;13.492;2024-03-06T08:43:02;31.25;;;14.80;;
36211;SDS011;22247;48.586;13.492;2024-03-06T08:45:29;27.58;;;13.95;;
36211;SDS011;22247;48.586;13.492;2024-03-06T08:47:54;27.58;;;13.35;;
36211;SDS011;22247;48.586;13.492;2024-03-06T08:52:45;31.27;;;13.55;;
36211;SDS011;22247;48.586;13.492;2024-03-06T08:55:10;26.08;;;11.88;;
36211;SDS011;22247;48.586;13.492;2024-03-06T09:00:02;29.23;;;12.98;;
36211;SDS011;22247;48.586;13.492;2024-03-06T09:02:28;26.35;;;12.98;;
36211;SDS011;22247;48.586;13.492;2024-03-06T09:04:53;29.02;;;12.88;;
36211;SDS011;22247;48.586;13.492;2024-03-06T09:09:47;24.48;;;11.93;;
36211;SDS011;22247;48.586;13.492;2024-03-06T09:12:12;22.92;;;10.98;;
36211;SDS011;22247;48.586;13.492;2024-03-06T09:14:38;26.83;;;12.07;;
36211;SDS011;22247;48.586;13.492;2024-03-06T09:17:04;23.88;;;10.95;;
36211;SDS011;22247;48.586;13.492;2024-03-06T09:19:32;22.25;;;10.30;;
36211;SDS011;22247;48.586;13.492;2024-03-06T09:21:57;23.98;;;10.45;;
36211;SDS011;22247;48.586;13.492;2024-03-06T09:26:50;24.02;;;11.02;;
36211;SDS011;22247;48.586;13.492;2024-03-06T09:29:19;26.40;;;9.90;;
36211;SDS011;22247;48.586;13.492;2024-03-06T09:31:44;22.02;;;10.88;;
36211;SDS011;22247;48.586;13.492;2024-03-06T09:36:36;23.90;;;10.38;;
36211;SDS011;22247;48.586;13.492;2024-03-06T09:41:28;23.80;;;9.80;;
36211;SDS011;22247;48.586;13.492;2024-03-06T09:46:21;21.95;;;9.27;;
36211;SDS011;22247;48.586;13.492;2024-03-06T09:48:49;20.55;;;10.00;;
36211;SDS011;22247;48.586;13.492;2024-03-06T09:51:16;19.40;;;9.13;;
36211;SDS011;22247;48.586;13.492;2024-03-06T09:56:09;21.85;;;9.23;;
36211;SDS011;22247;48.586;13.492;2024-03-06T09:58:35;24.00;;;10.00;;
36211;SDS011;22247;48.586;13.492;2024-03-06T10:01:03;21.98;;;9.30;;
36211;SDS011;22247;48.586;13.492;2024-03-06T10:03:31;20.17;;;8.77;;
36211;SDS011;22247;48.586;13.492;2024-03-06T10:08:25;17.40;;;8.70;;
36211;SDS011;22247;48.586;13.492;2024-03-06T10:10:51;20.65;;;9.13;;
36211;SDS011;22247;48.586;13.492;2024-03-06T10:13:25;17.75;;;8.52;;
36211;SDS011;22247;48.586;13.492;2024-03-06T10:18:26;19.77;;;8.15;;
36211;SDS011;22247;48.586;13.492;2024-03-06T10:20:51;19.05;;;8.85;;
36211;SDS011;22247;48.586;13.492;2024-03-06T10:23:17;16.75;;;6.55;;
36211;SDS011;22247;48.586;13.492;2024-03-06T10:25:42;17.50;;;8.10;;
36211;SDS011;22247;48.586;13.492;2024-03-06T10:28:09;19.50;;;7.72;;
36211;SDS011;22247;48.586;13.492;2024-03-06T10:30:36;20.90;;;9.05;;
36211;SDS011;22247;48.586;13.492;2024-03-06T10:33:02;18.88;;;8.13;;
36211;SDS011;22247;48.586;13.492;2024-03-06T10:35:30;15.20;;;7.20;;
36211;SDS011;22247;48.586;13.492;2024-03-06T10:40:20;20.20;;;9.23;;
36211;SDS011;22247;48.586;13.492;2024-03-06T10:42:45;23.08;;;8.25;;
36211;SDS011;22247;48.586;13.492;2024-03-06T10:45:11;17.98;;;7.38;;
36211;SDS011;22247;48.586;13.492;2024-03-06T10:47:39;20.02;;;8.27;;
36211;SDS011;22247;48.586;13.492;2024-03-06T10:50:06;19.90;;;8.90;;
36211;SDS011;22247;48.586;13.492;2024-03-06T10:52:35;15.57;;;7.35;;
36211;SDS011;22247;48.586;13.492;2024-03-06T10:55:01;20.40;;;8.27;;
36211;SDS011;22247;48.586;13.492;2024-03-06T10:57:27;18.67;;;7.80;;
36211;SDS011;22247;48.586;13.492;2024-03-06T10:59:56;18.00;;;7.60;;
36211;SDS011;22247;48.586;13.492;2024-03-06T11:02:25;19.00;;;8.25;;
36211;SDS011;22247;48.586;13.492;2024-03-06T11:04:52;22.67;;;8.65;;
36211;SDS011;22247;48.586;13.492;2024-03-06T11:07:18;14.73;;;7.72;;
36211;SDS011;22247;48.586;13.492;2024-03-06T11:09:45;17.63;;;8.23;;
36211;SDS011;22247;48.586;13.492;2024-03-06T11:12:31;17.45;;;8.30;;
36211;SDS011;22247;48.586;13.492;2024-03-06T11:14:56;15.90;;;7.75;;
36211;SDS011;22247;48.586;13.492;2024-03-06T11:25:10;15.05;;;7.05;;
36211;SDS011;22247;48.586;13.492;2024-03-06T11:28:02;18.80;;;7.93;;
36211;SDS011;22247;48.586;13.492;2024-03-06T11:30:27;18.95;;;8.40;;
36211;SDS011;22247;48.586;13.492;2024-03-06T11:35:22;16.33;;;7.18;;
36211;SDS011;22247;48.586;13.492;2024-03-06T11:37:47;16.67;;;7.30;;
36211;SDS011;22247;48.586;13.492;2024-03-06T11:40:18;14.85;;;8.07;;
36211;SDS011;22247;48.586;13.492;2024-03-06T11:42:48;19.30;;;8.70;;
36211;SDS011;22247;48.586;13.492;2024-03-06T11:45:16;19.35;;;8.40;;
36211;SDS011;22247;48.586;13.492;2024-03-06T11:48:00;20.77;;;8.77;;
36211;SDS011;22247;48.586;13.492;2024-03-06T11:50:26;20.88;;;9.18;;
36211;SDS011;22247;48.586;13.492;2024-03-06T11:52:58;20.38;;;9.80;;
36211;SDS011;22247;48.586;13.492;2024-03-06T11:55:23;17.55;;;8.52;;
36211;SDS011;22247;48.586;13.492;2024-03-06T11:57:51;18.83;;;8.70;;
36211;SDS011;22247;48.586;13.492;2024-03-06T12:00:17;20.30;;;9.05;;
36211;SDS011;22247;48.586;13.492;2024-03-06T12:02:43;23.25;;;8.50;;
36211;SDS011;22247;48.586;13.492;2024-03-06T12:07:44;20.40;;;9.45;;
36211;SDS011;22247;48.586;13.492;2024-03-06T12:10:09;22.10;;;9.32;;
36211;SDS011;22247;48.586;13.492;2024-03-06T12:12:35;17.40;;;8.90;;
36211;SDS011;22247;48.586;13.492;2024-03-06T12:17:28;20.00;;;9.18;;
36211;SDS011;22247;48.586;13.492;2024-03-06T12:22:17;19.85;;;8.73;;
36211;SDS011;22247;48.586;13.492;2024-03-06T12:24:45;23.45;;;8.77;;
36211;SDS011;22247;48.586;13.492;2024-03-06T12:29:36;19.75;;;9.55;;
36211;SDS011;22247;48.586;13.492;2024-03-06T12:32:15;19.17;;;8.95;;
36211;SDS011;22247;48.586;13.492;2024-03-06T12:37:09;21.47;;;9.80;;
36211;SDS011;22247;48.586;13.492;2024-03-06T12:39:34;21.23;;;9.77;;
36211;SDS011;22247;48.586;13.492;2024-03-06T12:42:00;19.00;;;9.07;;
36211;SDS011;22247;48.586;13.492;2024-03-06T12:46:50;17.55;;;9.13;;
36211;SDS011;22247;48.586;13.492;2024-03-06T12:51:43;20.35;;;8.80;;
36211;SDS011;22247;48.586;13.492;2024-03-06T12:54:10;19.13;;;9.73;;
36211;SDS011;22247;48.586;13.492;2024-03-06T12:59:00;18.60;;;9.27;;
36211;SDS011;22247;48.586;13.492;2024-03-06T13:03:50;19.35;;;8.82;;
36211;SDS011;22247;48.586;13.492;2024-03-06T13:08:40;23.23;;;10.95;;
36211;SDS011;22247;48.586;13.492;2024-03-06T13:11:05;24.73;;;10.77;;
36211;SDS011;22247;48.586;13.492;2024-03-06T13:13:35;21.55;;;10.18;;
36211;SDS011;22247;48.586;13.492;2024-03-06T13:16:00;27.23;;;10.70;;
36211;SDS011;22247;48.586;13.492;2024-03-06T13:20:53;24.33;;;11.07;;
36211;SDS011;22247;48.586;13.492;2024-03-06T13:23:18;19.60;;;10.35;;
36211;SDS011;22247;48.586;13.492;2024-03-06T13:28:09;21.88;;;10.95;;
36211;SDS011;22247;48.586;13.492;2024-03-06T13:32:59;20.70;;;10.45;;
36211;SDS011;22247;48.586;13.492;2024-03-06T13:37:49;22.98;;;10.77;;
36211;SDS011;22247;48.586;13.492;2024-03-06T13:42:40;29.42;;;12.10;;
36211;SDS011;22247;48.586;13.492;2024-03-06T13:45:10;27.83;;;11.77;;
36211;SDS011;22247;48.586;13.492;2024-03-06T13:47:38;24.42;;;11.30;;
36211;SDS011;22247;48.586;13.492;2024-03-06T13:50:04;26.08;;;11.35;;
36211;SDS011;22247;48.586;13.492;2024-03-06T13:52:30;26.08;;;12.02;;
36211;SDS011;22247;48.586;13.492;2024-03-06T13:57:20;23.83;;;10.90;;
36211;SDS011;22247;48.586;13.492;2024-03-06T14:02:10;25.88;;;11.13;;
36211;SDS011;22247;48.586;13.492;2024-03-06T14:07:00;27.17;;;11.60;;
36211;SDS011;22247;48.586;13.492;2024-03-06T14:09:26;31.95;;;15.30;;
36211;SDS011;22247;48.586;13.492;2024-03-06T14:11:51;31.23;;;10.82;;
36211;SDS011;22247;48.586;13.492;2024-03-06T14:14:19;22.27;;;9.40;;
36211;SDS011;22247;48.586;13.492;2024-03-06T14:16:44;18.48;;;9.05;;
36211;SDS011;22247;48.586;13.492;2024-03-06T14:19:12;21.15;;;9.88;;
36211;SDS011;22247;48.586;13.492;2024-03-06T14:21:40;15.35;;;8.45;;
36211;SDS011;22247;48.586;13.492;2024-03-06T14:24:07;16.83;;;8.60;;
36211;SDS011;22247;48.586;13.492;2024-03-06T14:26:33;18.20;;;8.75;;
36211;SDS011;22247;48.586;13.492;2024-03-06T14:29:01;21.50;;;9.35;;
36211;SDS011;22247;48.586;13.492;2024-03-06T14:31:26;19.13;;;8.55;;
36211;SDS011;22247;48.586;13.492;2024-03-06T14:36:16;19.63;;;8.50;;
36211;SDS011;22247;48.586;13.492;2024-03-06T14:38:42;19.77;;;8.80;;
36211;SDS011;22247;48.586;13.492;2024-03-06T14:41:15;19.45;;;8.20;;
36211;SDS011;22247;48.586;13.492;2024-03-06T14:43:43;17.40;;;8.57;;
36211;SDS011;22247;48.586;13.492;2024-03-06T14:46:10;17.52;;;7.55;;
36211;SDS011;22247;48.586;13.492;2024-03-06T14:48:36;15.52;;;7.10;;
36211;SDS011;22247;48.586;13.492;2024-03-06T14:51:01;19.00;;;8.30;;
36211;SDS011;22247;48.586;13.492;2024-03-06T14:55:51;18.48;;;8.50;;
36211;SDS011;22247;48.586;13.492;2024-03-06T15:00:43;19.40;;;8.27;;
36211;SDS011;22247;48.586;13.492;2024-03-06T15:03:13;21.25;;;8.88;;
36211;SDS011;22247;48.586;13.492;2024-03-06T15:05:38;16.10;;;7.95;;
36211;SDS011;22247;48.586;13.492;2024-03-06T15:08:05;19.40;;;9.00;;
36211;SDS011;22247;48.586;13.492;2024-03-06T15:12:56;18.10;;;7.75;;
36211;SDS011;22247;48.586;13.492;2024-03-06T15:15:23;15.20;;;7.38;;
36211;SDS011;22247;48.586;13.492;2024-03-06T15:20:13;22.20;;;8.50;;
36211;SDS011;22247;48.586;13.492;2024-03-06T15:25:12;18.20;;;8.25;;
36211;SDS011;22247;48.586;13.492;2024-03-06T15:27:41;17.65;;;7.95;;
36211;SDS011;22247;48.586;13.492;2024-03-06T15:30:07;21.98;;;8.80;;
36211;SDS011;22247;48.586;13.492;2024-03-06T15:32:32;18.50;;;8.68;;
36211;SDS011;22247;48.586;13.492;2024-03-06T15:34:58;20.08;;;7.93;;
36211;SDS011;22247;48.586;13.492;2024-03-06T15:39:51;15.60;;;7.15;;
36211;SDS011;22247;48.586;13.492;2024-03-06T15:42:16;17.75;;;7.18;;
36211;SDS011;22247;48.586;13.492;2024-03-06T15:44:41;17.63;;;7.00;;
36211;SDS011;22247;48.586;13.492;2024-03-06T15:49:31;17.27;;;7.13;;
36211;SDS011;22247;48.586;13.492;2024-03-06T15:51:56;14.40;;;7.18;;
36211;SDS011;22247;48.586;13.492;2024-03-06T15:54:21;16.25;;;6.55;;
36211;SDS011;22247;48.586;13.492;2024-03-06T15:56:49;21.15;;;7.47;;
36211;SDS011;22247;48.586;13.492;2024-03-06T15:59:14;12.90;;;6.78;;
36211;SDS011;22247;48.586;13.492;2024-03-06T16:01:41;17.65;;;7.65;;
36211;SDS011;22247;48.586;13.492;2024-03-06T16:04:06;16.42;;;7.15;;
36211;SDS011;22247;48.586;13.492;2024-03-06T16:08:58;14.80;;;7.43;;